Time;durP1;ratioP1;P1;durP2;ratioP2;P2;SDS_P1;SDS_P2;PMS_P1;PMS_P2;Temp;Humidity;BMP_temperature;BMP_pressure;BME280_temperature;BME280_humidity;BME280_pressure;Samples;Min_cycle;Max_cycle;Signal;HPM_P1;HPM_P2
2022/08/24 00:02:02;;;;;;;;;;;19.60;99.90;;;;;;5063399;28;19931;-77
2022/08/24 00:04:27;;;;;;;;;;;19.60;99.90;;;;;;5048749;28;19925;-77
2022/08/24 00:06:53;;;;;;;;;;;19.60;99.90;;;;;;5044249;28;20367;-77
2022/08/24 00:09:18;;;;;;;;;;;19.50;99.90;;;;;;5044691;28;20652;-77
2022/08/24 00:11:44;;;;;;;;;;;19.50;99.90;;;;;;5051597;28;19935;-77
2022/08/24 00:14:10;;;;;;;;;;;19.50;99.90;;;;;;5058171;28;19978;-77
2022/08/24 00:16:36;;;;;;;;;;;19.40;99.90;;;;;;5048393;28;19925;-77
2022/08/24 00:19:02;;;;;;;;;;;19.40;99.90;;;;;;5054722;28;19940;-76
2022/08/24 00:21:27;;;;;;;;;;;19.40;99.90;;;;;;5054427;28;19924;-77
2022/08/24 00:23:53;;;;;;;;;;;19.40;99.90;;;;;;5053570;28;19925;-77
2022/08/24 00:26:18;;;;;;;;;;;19.30;99.90;;;;;;5054890;28;19981;-77
2022/08/24 00:28:44;;;;;;;;;;;19.30;99.90;;;;;;5052491;28;19924;-77
2022/08/24 00:31:10;;;;;;;;;;;19.30;99.90;;;;;;5061119;28;19929;-77
2022/08/24 00:33:36;;;;;;;;;;;19.30;99.90;;;;;;5047503;28;19928;-77
2022/08/24 00:36:01;;;;;;;;;;;19.30;99.90;;;;;;5048076;28;19933;-77
2022/08/24 00:38:27;;;;;;;;;;;19.30;99.90;;;;;;5063131;28;19932;-76
2022/08/24 00:40:53;;;;;;;;;;;19.20;99.90;;;;;;5048423;28;19924;-77
2022/08/24 00:43:20;;;;;;;;;;;19.20;99.90;;;;;;5064017;28;20399;-77
2022/08/24 00:45:49;;;;;;;;;;;19.20;99.90;;;;;;5046617;28;19925;-76
2022/08/24 00:48:17;;;;;;;;;;;19.20;99.90;;;;;;5059770;28;19952;-77
2022/08/24 00:50:44;;;;;;;;;;;19.20;99.90;;;;;;5055209;28;19929;-76
2022/08/24 00:53:14;;;;;;;;;;;19.20;99.90;;;;;;5046794;28;19936;-77
2022/08/24 00:55:46;;;;;;;;;;;19.20;99.90;;;;;;5066894;28;19924;-77
2022/08/24 00:58:14;;;;;;;;;;;19.10;99.90;;;;;;5055190;28;19920;-76
2022/08/24 01:00:42;;;;;;;;;;;19.10;99.90;;;;;;5047612;28;20237;-77
2022/08/24 01:03:07;;;;;;;;;;;19.00;99.90;;;;;;5047167;28;20401;-78
2022/08/24 01:05:34;;;;;;;;;;;19.00;99.90;;;;;;5064094;28;19928;-77
2022/08/24 01:08:00;;;;;;;;;;;19.00;99.90;;;;;;5047675;28;19925;-77
2022/08/24 01:10:27;;;;;;;;;;;19.00;99.90;;;;;;5083799;22;20293;-77
2022/08/24 01:12:55;;;;;;;;;;;19.00;99.90;;;;;;5085860;28;19924;-76
2022/08/24 01:15:21;;;;;;;;;;;19.00;99.90;;;;;;5085270;28;20285;-76
2022/08/24 01:20:31;;;;;;;;;;;19.00;99.90;;;;;;5084408;28;20464;-76
2022/08/24 01:23:09;;;;;;;;;;;19.00;99.90;;;;;;5086608;28;20023;-76
2022/08/24 01:25:36;;;;;;;;;;;19.00;99.90;;;;;;5085748;28;19985;-76
2022/08/24 01:28:07;;;;;;;;;;;18.90;99.90;;;;;;5085456;28;20011;-76
2022/08/24 01:30:33;;;;;;;;;;;18.90;99.90;;;;;;5085858;28;20401;-76
2022/08/24 01:33:00;;;;;;;;;;;18.90;99.90;;;;;;5085969;28;19931;-76
2022/08/24 01:35:26;;;;;;;;;;;18.90;99.90;;;;;;5086563;28;19981;-76
2022/08/24 01:37:53;;;;;;;;;;;18.90;99.90;;;;;;5086257;28;19928;-76
2022/08/24 01:40:19;;;;;;;;;;;18.80;99.90;;;;;;5086092;28;20019;-76
2022/08/24 01:42:49;;;;;;;;;;;18.80;99.90;;;;;;5084541;28;19924;-76
2022/08/24 01:45:15;;;;;;;;;;;18.80;99.90;;;;;;5086112;28;19924;-76
2022/08/24 01:47:40;;;;;;;;;;;18.80;99.90;;;;;;5085276;28;20386;-76
2022/08/24 01:50:06;;;;;;;;;;;18.70;99.90;;;;;;5086021;28;19924;-76
2022/08/24 01:52:32;;;;;;;;;;;18.70;99.90;;;;;;5085340;28;19924;-75
2022/08/24 01:54:57;;;;;;;;;;;18.70;99.90;;;;;;5086273;28;19925;-76
2022/08/24 01:57:24;;;;;;;;;;;18.70;99.90;;;;;;5085058;28;19943;-76
2022/08/24 01:59:50;;;;;;;;;;;18.70;99.90;;;;;;5085232;28;20061;-76
2022/08/24 02:02:27;;;;;;;;;;;18.70;99.90;;;;;;5085508;28;19966;-76
2022/08/24 02:04:53;;;;;;;;;;;18.70;99.90;;;;;;5085132;28;19924;-76
2022/08/24 02:07:18;;;;;;;;;;;18.70;99.90;;;;;;5085653;28;20206;-76
2022/08/24 02:09:44;;;;;;;;;;;18.60;99.90;;;;;;5023111;28;1754287;-76
2022/08/24 02:12:10;;;;;;;;;;;18.60;99.90;;;;;;5085669;28;19924;-75
2022/08/24 02:14:36;;;;;;;;;;;18.60;99.90;;;;;;5085958;28;20602;-76
2022/08/24 02:17:03;;;;;;;;;;;18.60;99.90;;;;;;5085282;28;19920;-75
2022/08/24 02:19:28;;;;;;;;;;;18.60;99.90;;;;;;5085925;28;19976;-76
2022/08/24 02:21:54;;;;;;;;;;;18.60;99.90;;;;;;5086867;28;20019;-76
2022/08/24 02:24:19;;;;;;;;;;;18.60;99.90;;;;;;5086263;28;19928;-76
2022/08/24 02:26:45;;;;;;;;;;;18.60;99.90;;;;;;5084738;28;20402;-76
2022/08/24 02:29:10;;;;;;;;;;;18.60;99.90;;;;;;5086683;28;20407;-76
2022/08/24 02:31:36;;;;;;;;;;;18.60;99.90;;;;;;5086235;28;19975;-76
2022/08/24 02:34:02;;;;;;;;;;;18.50;99.90;;;;;;5084693;28;19974;-76
2022/08/24 02:36:28;;;;;;;;;;;18.50;99.90;;;;;;5085414;28;19927;-76
2022/08/24 02:38:54;;;;;;;;;;;18.50;99.90;;;;;;5086564;28;19935;-76
2022/08/24 02:41:20;;;;;;;;;;;18.50;99.90;;;;;;5085015;28;19971;-76
2022/08/24 02:43:46;;;;;;;;;;;18.50;99.90;;;;;;5085546;28;19969;-76
2022/08/24 02:46:18;;;;;;;;;;;18.40;99.90;;;;;;5085460;28;19935;-75
2022/08/24 02:48:44;;;;;;;;;;;18.50;99.90;;;;;;5067414;28;19927;-76
2022/08/24 02:51:17;;;;;;;;;;;18.50;99.90;;;;;;5085369;28;19977;-76
2022/08/24 02:53:42;;;;;;;;;;;18.40;99.90;;;;;;5085761;28;19969;-76
2022/08/24 02:56:07;;;;;;;;;;;18.40;99.90;;;;;;5067003;28;19928;-76
2022/08/24 02:58:33;;;;;;;;;;;18.40;99.90;;;;;;5084887;28;19931;-76
2022/08/24 03:00:58;;;;;;;;;;;18.40;99.90;;;;;;5085915;28;19950;-76
2022/08/24 03:03:24;;;;;;;;;;;18.40;99.90;;;;;;5086132;28;20418;-76
2022/08/24 03:05:49;;;;;;;;;;;18.40;99.90;;;;;;5084928;28;19932;-76
2022/08/24 03:08:15;;;;;;;;;;;18.40;99.90;;;;;;5084530;28;19975;-76
2022/08/24 03:10:40;;;;;;;;;;;18.40;99.90;;;;;;5084937;28;19931;-76
2022/08/24 03:13:06;;;;;;;;;;;18.40;99.90;;;;;;5084773;28;20317;-76
2022/08/24 03:15:32;;;;;;;;;;;18.40;99.90;;;;;;5085043;28;20347;-76
2022/08/24 03:17:57;;;;;;;;;;;18.40;99.90;;;;;;5085740;28;19928;-76
2022/08/24 03:20:23;;;;;;;;;;;18.40;99.90;;;;;;5085163;28;19931;-76
2022/08/24 03:22:48;;;;;;;;;;;18.40;99.90;;;;;;5084875;28;19958;-76
2022/08/24 03:25:15;;;;;;;;;;;18.40;99.90;;;;;;5085486;28;19959;-76
2022/08/24 03:27:40;;;;;;;;;;;18.40;99.90;;;;;;5084572;28;20326;-76
2022/08/24 03:30:07;;;;;;;;;;;18.40;99.90;;;;;;5084867;28;20053;-76
2022/08/24 03:32:32;;;;;;;;;;;18.40;99.90;;;;;;5084912;28;20293;-76
2022/08/24 03:34:58;;;;;;;;;;;18.40;99.90;;;;;;5085722;28;19931;-76
2022/08/24 03:37:24;;;;;;;;;;;18.50;99.90;;;;;;5085172;28;19924;-76
2022/08/24 03:39:49;;;;;;;;;;;18.50;99.90;;;;;;5083657;28;19924;-76
2022/08/24 03:42:15;;;;;;;;;;;18.50;99.90;;;;;;5084020;28;19935;-76
2022/08/24 03:44:41;;;;;;;;;;;18.50;99.90;;;;;;5084972;28;19924;-76
2022/08/24 03:47:09;;;;;;;;;;;18.50;99.90;;;;;;5084766;28;19924;-76
2022/08/24 03:49:35;;;;;;;;;;;18.50;99.90;;;;;;5087201;28;20040;-76
2022/08/24 03:52:00;;;;;;;;;;;18.40;99.90;;;;;;5088789;28;20011;-76
2022/08/24 03:54:26;;;;;;;;;;;18.40;99.90;;;;;;5089192;28;19931;-76
2022/08/24 03:56:51;;;;;;;;;;;18.40;99.90;;;;;;5088215;28;19968;-76
2022/08/24 03:59:17;;;;;;;;;;;18.40;99.90;;;;;;5087859;28;19924;-76
2022/08/24 04:01:42;;;;;;;;;;;18.40;99.90;;;;;;5088432;28;19946;-75
2022/08/24 04:04:08;;;;;;;;;;;18.40;99.90;;;;;;5088462;28;20011;-76
2022/08/24 04:06:33;;;;;;;;;;;18.30;99.90;;;;;;5089089;28;20533;-76
2022/08/24 04:08:59;;;;;;;;;;;18.30;99.90;;;;;;5088706;28;19950;-75
2022/08/24 04:11:26;;;;;;;;;;;18.30;99.90;;;;;;5088148;28;19924;-76
2022/08/24 04:13:55;;;;;;;;;;;18.30;99.90;;;;;;5088459;28;20472;-76
2022/08/24 04:16:21;;;;;;;;;;;18.30;99.90;;;;;;5087451;28;19982;-76
2022/08/24 04:18:46;;;;;;;;;;;18.30;99.90;;;;;;5088561;28;19967;-76
2022/08/24 04:21:19;;;;;;;;;;;18.20;99.90;;;;;;5070065;28;20428;-76
2022/08/24 04:23:45;;;;;;;;;;;18.20;99.90;;;;;;5088225;28;19931;-75
2022/08/24 04:26:11;;;;;;;;;;;18.20;99.90;;;;;;5087388;28;19964;-76
2022/08/24 04:28:36;;;;;;;;;;;18.20;99.90;;;;;;5088149;28;20083;-76
2022/08/24 04:31:04;;;;;;;;;;;18.20;99.90;;;;;;5088438;28;19966;-76
2022/08/24 04:33:30;;;;;;;;;;;18.20;99.90;;;;;;5087597;28;20007;-76
2022/08/24 04:35:56;;;;;;;;;;;18.20;99.90;;;;;;5088691;28;20001;-76
2022/08/24 04:38:21;;;;;;;;;;;18.20;99.90;;;;;;5087852;28;19978;-76
2022/08/24 04:40:47;;;;;;;;;;;18.10;99.90;;;;;;5086007;28;19924;-76
2022/08/24 04:43:13;;;;;;;;;;;18.20;99.90;;;;;;5088177;28;20065;-76
2022/08/24 04:45:40;;;;;;;;;;;18.10;99.90;;;;;;5087988;28;19931;-76
2022/08/24 04:48:06;;;;;;;;;;;18.20;99.90;;;;;;5087706;28;20369;-76
2022/08/24 04:50:35;;;;;;;;;;;18.20;99.90;;;;;;5087798;28;19931;-76
2022/08/24 04:53:04;;;;;;;;;;;18.20;99.90;;;;;;5088015;28;19955;-76
2022/08/24 04:55:30;;;;;;;;;;;18.10;99.90;;;;;;5087844;28;19935;-76
2022/08/24 04:57:55;;;;;;;;;;;18.10;99.90;;;;;;5087071;28;19924;-77
2022/08/24 05:00:21;;;;;;;;;;;18.10;99.90;;;;;;5087392;28;19925;-76
2022/08/24 05:02:46;;;;;;;;;;;18.10;99.90;;;;;;5086992;28;20381;-76
2022/08/24 05:05:12;;;;;;;;;;;18.10;99.90;;;;;;5087649;28;19931;-76
2022/08/24 05:07:37;;;;;;;;;;;18.10;99.90;;;;;;5087041;28;19999;-76
2022/08/24 05:10:04;;;;;;;;;;;18.10;99.90;;;;;;5081823;28;19978;-76
2022/08/24 05:12:30;;;;;;;;;;;18.10;99.90;;;;;;5082053;28;19928;-77
2022/08/24 05:14:56;;;;;;;;;;;18.10;99.90;;;;;;5087511;28;19927;-77
2022/08/24 05:17:22;;;;;;;;;;;18.10;99.90;;;;;;5087146;28;19985;-76
2022/08/24 05:19:49;;;;;;;;;;;18.20;99.90;;;;;;5085795;28;20369;-77
2022/08/24 05:22:14;;;;;;;;;;;18.20;99.90;;;;;;5086741;28;20007;-77
2022/08/24 05:24:40;;;;;;;;;;;18.20;99.90;;;;;;5085564;28;20441;-76
2022/08/24 05:27:05;;;;;;;;;;;18.20;99.90;;;;;;5086650;28;19924;-77
2022/08/24 05:29:33;;;;;;;;;;;18.20;99.90;;;;;;5086452;28;20394;-78
2022/08/24 05:31:58;;;;;;;;;;;18.30;99.90;;;;;;5081615;28;20033;-79
2022/08/24 05:34:24;;;;;;;;;;;18.30;99.90;;;;;;5078696;28;19949;-78
2022/08/24 05:36:49;;;;;;;;;;;18.30;99.90;;;;;;5076171;28;19969;-80
2022/08/24 05:39:15;;;;;;;;;;;18.40;99.90;;;;;;5086541;28;19931;-80
2022/08/24 05:41:41;;;;;;;;;;;18.30;99.90;;;;;;5084436;28;19959;-80
2022/08/24 05:44:07;;;;;;;;;;;18.40;99.90;;;;;;5086737;28;20724;-81
2022/08/24 05:46:32;;;;;;;;;;;18.40;99.90;;;;;;5086032;28;19935;-81
2022/08/24 05:48:59;;;;;;;;;;;18.50;99.90;;;;;;5084703;28;20062;-81
2022/08/24 05:51:24;;;;;;;;;;;18.50;99.90;;;;;;5085305;28;19924;-81
2022/08/24 05:53:50;;;;;;;;;;;18.50;99.90;;;;;;5086154;28;19928;-80
2022/08/24 05:56:16;;;;;;;;;;;18.60;99.90;;;;;;5080559;28;20305;-80
2022/08/24 05:58:43;;;;;;;;;;;18.60;99.90;;;;;;5077867;28;19932;-80
2022/08/24 06:01:10;;;;;;;;;;;18.60;99.90;;;;;;5076484;28;19932;-80
2022/08/24 06:03:36;;;;;;;;;;;18.70;99.90;;;;;;5082038;28;19932;-81
2022/08/24 06:06:03;;;;;;;;;;;18.70;99.90;;;;;;5071717;28;19924;-80
2022/08/24 06:08:29;;;;;;;;;;;18.80;99.90;;;;;;5069229;28;19978;-79
2022/08/24 06:10:55;;;;;;;;;;;18.80;99.90;;;;;;5077639;28;19931;-80
2022/08/24 06:13:20;;;;;;;;;;;18.90;99.90;;;;;;5081370;28;20336;-80
2022/08/24 06:15:46;;;;;;;;;;;18.90;99.90;;;;;;5074775;28;20027;-80
2022/08/24 06:18:14;;;;;;;;;;;19.00;99.90;;;;;;5074452;28;19928;-80
2022/08/24 06:20:55;;;;;;;;;;;19.00;99.90;;;;;;5069514;28;20015;-80
2022/08/24 06:23:20;;;;;;;;;;;19.10;99.90;;;;;;5080898;28;20015;-80
2022/08/24 06:28:32;;;;;;;;;;;19.10;99.90;;;;;;5073745;28;19932;-80
2022/08/24 06:31:05;;;;;;;;;;;19.20;99.90;;;;;;5079808;28;20374;-80
2022/08/24 06:33:31;;;;;;;;;;;19.20;99.90;;;;;;5080533;28;19971;-80
2022/08/24 06:35:56;;;;;;;;;;;19.30;99.90;;;;;;5083863;28;20006;-80
2022/08/24 06:38:22;;;;;;;;;;;19.30;99.90;;;;;;5084155;28;19935;-81
2022/08/24 06:40:48;;;;;;;;;;;19.30;99.90;;;;;;5084221;28;20858;-80
2022/08/24 06:43:13;;;;;;;;;;;19.40;99.90;;;;;;5083949;28;20344;-80
2022/08/24 06:45:39;;;;;;;;;;;19.40;99.90;;;;;;5084788;28;20011;-80
2022/08/24 06:48:05;;;;;;;;;;;19.40;99.90;;;;;;5085505;28;19971;-80
2022/08/24 06:50:30;;;;;;;;;;;19.50;99.90;;;;;;5083262;28;19976;-81
2022/08/24 06:52:56;;;;;;;;;;;19.60;99.90;;;;;;5085552;28;19931;-81
2022/08/24 06:55:21;;;;;;;;;;;19.60;99.90;;;;;;5084688;28;19924;-82
2022/08/24 06:57:47;;;;;;;;;;;19.70;99.90;;;;;;5083785;28;19963;-81
2022/08/24 07:00:13;;;;;;;;;;;19.70;99.90;;;;;;5085249;28;20392;-81
2022/08/24 07:02:42;;;;;;;;;;;19.80;99.90;;;;;;5084484;28;19931;-80
2022/08/24 07:05:07;;;;;;;;;;;19.80;99.90;;;;;;5085683;28;20216;-78
2022/08/24 07:07:33;;;;;;;;;;;19.80;99.90;;;;;;5083574;28;19971;-81
2022/08/24 07:09:59;;;;;;;;;;;19.90;99.90;;;;;;5078826;28;20436;-82
2022/08/24 07:12:25;;;;;;;;;;;20.00;99.90;;;;;;5062673;28;19924;-81
2022/08/24 07:14:51;;;;;;;;;;;20.00;99.90;;;;;;5064626;28;19931;-86
2022/08/24 07:17:17;;;;;;;;;;;20.10;99.90;;;;;;5065720;28;19928;-92
2022/08/24 07:19:44;;;;;;;;;;;20.20;99.90;;;;;;5065008;28;20106;-92
2022/08/24 07:22:11;;;;;;;;;;;20.20;99.90;;;;;;5063365;28;19925;-93
2022/08/24 07:24:36;;;;;;;;;;;20.20;99.90;;;;;;5064642;28;20246;-92
2022/08/24 07:27:02;;;;;;;;;;;20.40;99.90;;;;;;5063789;28;20320;-92
2022/08/24 07:29:27;;;;;;;;;;;20.40;99.90;;;;;;5064836;28;19986;-92
2022/08/24 07:31:53;;;;;;;;;;;20.50;99.90;;;;;;5064262;28;20401;-92
2022/08/24 07:34:18;;;;;;;;;;;20.50;99.90;;;;;;5070278;28;19928;-93
2022/08/24 07:36:44;;;;;;;;;;;20.60;99.90;;;;;;5066295;28;20290;-94
2022/08/24 07:39:10;;;;;;;;;;;20.60;99.90;;;;;;5064790;28;19932;-92
2022/08/24 07:41:39;;;;;;;;;;;20.70;99.90;;;;;;5080461;28;19993;-92
2022/08/24 07:44:08;;;;;;;;;;;20.70;99.90;;;;;;5083465;28;20018;-93
2022/08/24 07:46:33;;;;;;;;;;;20.80;99.90;;;;;;5083537;28;20089;-93
2022/08/24 07:48:59;;;;;;;;;;;20.80;99.90;;;;;;5079666;28;20567;-91
2022/08/24 07:51:26;;;;;;;;;;;20.90;99.90;;;;;;5065200;28;20290;-94
2022/08/24 07:53:51;;;;;;;;;;;20.90;99.90;;;;;;5068191;28;19924;-93
2022/08/24 07:56:17;;;;;;;;;;;21.00;99.90;;;;;;5063828;28;19931;-93
2022/08/24 07:58:43;;;;;;;;;;;21.00;99.90;;;;;;5075587;28;19920;-94
2022/08/24 08:01:09;;;;;;;;;;;21.00;99.90;;;;;;5084354;28;19925;-94
2022/08/24 08:03:35;;;;;;;;;;;21.10;99.90;;;;;;5075967;28;19955;-80
2022/08/24 08:06:01;;;;;;;;;;;21.10;99.90;;;;;;5083228;28;19924;-80
2022/08/24 08:08:30;;;;;;;;;;;21.20;99.90;;;;;;5077534;28;20362;-79
2022/08/24 08:10:56;;;;;;;;;;;21.20;99.90;;;;;;5062933;28;19932;-81
2022/08/24 08:13:21;;;;;;;;;;;21.30;99.90;;;;;;5062964;28;20420;-81
2022/08/24 08:15:48;;;;;;;;;;;21.30;99.90;;;;;;5064531;28;19925;-82
2022/08/24 08:18:14;;;;;;;;;;;21.40;99.90;;;;;;5067375;28;19945;-82
2022/08/24 08:20:40;;;;;;;;;;;21.50;99.90;;;;;;5079724;28;20390;-80
2022/08/24 08:25:51;;;;;;;;;;;21.60;99.90;;;;;;5069211;28;19928;-80
2022/08/24 08:28:17;;;;;;;;;;;21.60;99.90;;;;;;5074072;28;19931;-78
2022/08/24 08:30:46;;;;;;;;;;;21.60;99.90;;;;;;5082474;28;19928;-79
2022/08/24 08:33:12;;;;;;;;;;;21.70;99.90;;;;;;5072217;28;20349;-78
2022/08/24 08:35:38;;;;;;;;;;;21.70;99.90;;;;;;5083086;28;20023;-87
2022/08/24 08:38:04;;;;;;;;;;;21.80;99.90;;;;;;5086267;28;19924;-84
2022/08/24 08:40:39;;;;;;;;;;;21.80;99.90;;;;;;5087199;28;19950;-83
2022/08/24 08:43:20;;;;;;;;;;;21.90;99.90;;;;;;5086685;28;19925;-82
2022/08/24 08:45:52;;;;;;;;;;;21.90;99.90;;;;;;5082041;28;19962;-81
2022/08/24 08:48:36;;;;;;;;;;;22.00;99.90;;;;;;5072463;28;19975;-80
2022/08/24 08:51:21;;;;;;;;;;;22.10;99.90;;;;;;5071462;28;19950;-79
2022/08/24 08:54:03;;;;;;;;;;;22.10;99.90;;;;;;5070496;28;19924;-81
2022/08/24 08:56:34;;;;;;;;;;;22.10;99.90;;;;;;5081063;28;19936;-77
2022/08/24 08:59:00;;;;;;;;;;;22.20;99.90;;;;;;5069970;28;19986;-78
2022/08/24 09:01:44;;;;;;;;;;;22.30;99.90;;;;;;5087265;28;20406;-81
2022/08/24 09:04:28;;;;;;;;;;;22.30;99.90;;;;;;5086325;28;20014;-81
2022/08/24 09:07:12;;;;;;;;;;;22.30;99.90;;;;;;5087931;28;19971;-80
2022/08/24 09:09:44;;;;;;;;;;;22.40;99.90;;;;;;5086400;28;19989;-80
2022/08/24 09:12:15;;;;;;;;;;;22.40;99.90;;;;;;5086171;28;20301;-79
2022/08/24 09:15:00;;;;;;;;;;;22.50;99.90;;;;;;5086505;28;20019;-81
2022/08/24 09:17:25;;;;;;;;;;;22.60;99.90;;;;;;5086829;28;19947;-80
2022/08/24 09:20:09;;;;;;;;;;;22.60;99.90;;;;;;5086240;28;19924;-81
2022/08/24 09:22:37;;;;;;;;;;;22.70;99.90;;;;;;5076193;28;20416;-81
2022/08/24 09:25:19;;;;;;;;;;;22.70;99.90;;;;;;5085735;28;20423;-81
2022/08/24 09:28:03;;;;;;;;;;;22.80;99.90;;;;;;5086526;28;19960;-80
2022/08/24 09:30:40;;;;;;;;;;;22.80;99.90;;;;;;5085228;28;20413;-81
2022/08/24 09:33:06;;;;;;;;;;;22.90;99.90;;;;;;5085896;28;19978;-80
2022/08/24 09:35:34;;;;;;;;;;;22.90;99.90;;;;;;5085886;28;19977;-80
2022/08/24 09:38:07;;;;;;;;;;;22.90;99.90;;;;;;5085526;28;19924;-79
2022/08/24 09:40:34;;;;;;;;;;;23.00;99.90;;;;;;5085561;28;20012;-80
2022/08/24 09:43:28;;;;;;;;;;;23.00;99.90;;;;;;5085707;28;19924;-78
2022/08/24 09:45:54;;;;;;;;;;;23.00;99.90;;;;;;5083748;28;20464;-78
2022/08/24 09:48:46;;;;;;;;;;;23.10;99.90;;;;;;5084733;28;19963;-79
2022/08/24 09:51:30;;;;;;;;;;;23.10;99.90;;;;;;5079647;28;19928;-79
2022/08/24 09:53:59;;;;;;;;;;;23.20;99.90;;;;;;5085280;28;19924;-79
2022/08/24 09:56:47;;;;;;;;;;;23.30;99.90;;;;;;5084923;28;20006;-79
2022/08/24 09:59:13;;;;;;;;;;;23.30;99.90;;;;;;5082293;28;19924;-79
2022/08/24 10:01:44;;;;;;;;;;;23.30;99.90;;;;;;5067596;28;20129;-78
2022/08/24 10:04:25;;;;;;;;;;;23.30;99.90;;;;;;5085303;28;19930;-79
2022/08/24 10:06:56;;;;;;;;;;;23.40;99.90;;;;;;5085778;28;19931;-79
2022/08/24 10:09:40;;;;;;;;;;;23.40;99.90;;;;;;5085858;28;20325;-79
2022/08/24 10:12:12;;;;;;;;;;;23.40;99.90;;;;;;5082295;28;19924;-80
2022/08/24 10:14:49;;;;;;;;;;;23.40;99.90;;;;;;5085793;28;19931;-81
2022/08/24 10:17:21;;;;;;;;;;;23.40;99.90;;;;;;5085468;28;19924;-82
2022/08/24 10:19:53;;;;;;;;;;;23.50;99.90;;;;;;5083946;28;19947;-81
2022/08/24 10:22:37;;;;;;;;;;;23.50;99.90;;;;;;5083371;28;19935;-80
2022/08/24 10:25:23;;;;;;;;;;;23.50;99.90;;;;;;5084547;28;19928;-80
2022/08/24 10:27:55;;;;;;;;;;;23.60;99.90;;;;;;5085052;28;19935;-81
2022/08/24 10:30:21;;;;;;;;;;;23.60;99.90;;;;;;5083726;28;19949;-81
2022/08/24 10:33:05;;;;;;;;;;;23.60;99.90;;;;;;5084576;28;19924;-81
2022/08/24 10:35:36;;;;;;;;;;;23.60;99.90;;;;;;5068983;28;20365;-83
2022/08/24 10:41:01;;;;;;;;;;;23.60;99.90;;;;;;5083383;28;19931;-83
2022/08/24 10:43:45;;;;;;;;;;;23.70;99.90;;;;;;5085241;28;19924;-83
2022/08/24 10:46:20;;;;;;;;;;;23.60;99.90;;;;;;5085559;28;20385;-82
2022/08/24 10:48:51;;;;;;;;;;;23.70;99.90;;;;;;5083913;28;20349;-81
2022/08/24 10:51:35;;;;;;;;;;;23.70;99.90;;;;;;5085267;28;19971;-81
2022/08/24 10:54:02;;;;;;;;;;;23.80;99.90;;;;;;5085305;28;19924;-82
2022/08/24 10:56:34;;;;;;;;;;;23.80;99.90;;;;;;5083653;28;19932;-82
2022/08/24 10:59:16;;;;;;;;;;;23.80;99.90;;;;;;5066922;28;20010;-81
2022/08/24 11:01:58;;;;;;;;;;;23.80;99.90;;;;;;5084564;28;19924;-82
2022/08/24 11:04:31;;;;;;;;;;;23.90;99.90;;;;;;5081572;28;19931;-81
2022/08/24 11:07:15;;;;;;;;;;;24.00;99.90;;;;;;5083946;28;19931;-81
2022/08/24 11:09:52;;;;;;;;;;;24.00;99.90;;;;;;5073529;28;20019;-81
2022/08/24 11:12:22;;;;;;;;;;;24.10;99.90;;;;;;5083446;28;19970;-81
2022/08/24 11:14:48;;;;;;;;;;;24.20;99.90;;;;;;5084078;28;19924;-80
2022/08/24 11:17:18;;;;;;;;;;;24.20;99.90;;;;;;5084102;28;20413;-81
2022/08/24 11:19:44;;;;;;;;;;;24.20;99.90;;;;;;5084735;28;19924;-81
2022/08/24 11:22:28;;;;;;;;;;;24.20;99.90;;;;;;5084893;28;19931;-80
2022/08/24 11:24:56;;;;;;;;;;;24.20;99.90;;;;;;5082600;28;20412;-80
2022/08/24 11:27:27;;;;;;;;;;;24.20;99.90;;;;;;5084033;28;19925;-82
2022/08/24 11:29:53;;;;;;;;;;;24.30;99.90;;;;;;5082066;28;19931;-82
2022/08/24 11:32:39;;;;;;;;;;;24.30;99.90;;;;;;5084630;28;19928;-82
2022/08/24 11:35:07;;;;;;;;;;;24.30;99.90;;;;;;5083034;28;19971;-79
2022/08/24 11:37:34;;;;;;;;;;;24.30;99.90;;;;;;5084435;28;19974;-83
2022/08/24 11:40:00;;;;;;;;;;;24.30;99.90;;;;;;5083700;28;19931;-82
2022/08/24 11:42:45;;;;;;;;;;;24.30;99.90;;;;;;5078858;28;19988;-82
2022/08/24 11:45:16;;;;;;;;;;;24.30;99.90;;;;;;5083369;28;19928;-86
2022/08/24 11:47:50;;;;;;;;;;;24.30;99.90;;;;;;5081065;28;19924;-79
2022/08/24 11:50:25;;;;;;;;;;;24.40;99.90;;;;;;5068788;28;20002;-80
2022/08/24 11:53:10;;;;;;;;;;;24.40;99.90;;;;;;5078390;28;20409;-80
2022/08/24 11:55:49;;;;;;;;;;;24.50;99.90;;;;;;5061757;28;19931;-80
2022/08/24 11:58:27;;;;;;;;;;;24.50;99.90;;;;;;5080967;28;20294;-80
2022/08/24 12:00:54;;;;;;;;;;;24.50;99.90;;;;;;5083899;28;19927;-80
2022/08/24 12:03:36;;;;;;;;;;;24.50;99.90;;;;;;5083105;28;20446;-80
2022/08/24 12:06:25;;;;;;;;;;;24.50;99.90;;;;;;5065703;28;19924;-80
2022/08/24 12:08:54;;;;;;;;;;;24.50;99.90;;;;;;5083832;28;19924;-80
2022/08/24 12:11:28;;;;;;;;;;;24.50;99.90;;;;;;5086436;28;19932;-81
2022/08/24 12:14:12;;;;;;;;;;;24.50;99.90;;;;;;5087085;28;20369;-81
2022/08/24 12:16:38;;;;;;;;;;;24.60;99.90;;;;;;5087622;28;19924;-80
2022/08/24 12:19:12;;;;;;;;;;;24.70;99.90;;;;;;5086191;28;19931;-81
2022/08/24 12:21:38;;;;;;;;;;;24.70;99.90;;;;;;5087755;28;19924;-79
2022/08/24 12:24:09;;;;;;;;;;;24.80;99.90;;;;;;5087347;28;19932;-81
2022/08/24 12:26:37;;;;;;;;;;;24.80;99.90;;;;;;5086446;28;20524;-81
2022/08/24 12:29:08;;;;;;;;;;;24.90;99.90;;;;;;5087757;28;20582;-80
2022/08/24 12:31:40;;;;;;;;;;;24.90;99.90;;;;;;5087051;28;20389;-80
2022/08/24 12:34:15;;;;;;;;;;;24.90;99.90;;;;;;5087080;28;20437;-80
2022/08/24 12:36:59;;;;;;;;;;;24.90;99.90;;;;;;5087199;28;19924;-80
2022/08/24 12:39:27;;;;;;;;;;;24.90;99.90;;;;;;5086800;28;19924;-84
2022/08/24 12:42:01;;;;;;;;;;;25.00;99.90;;;;;;5085604;28;20024;-81
2022/08/24 12:44:33;;;;;;;;;;;25.00;99.90;;;;;;5086324;28;19928;-85
2022/08/24 12:46:59;;;;;;;;;;;24.90;99.90;;;;;;5086637;28;19925;-80
2022/08/24 12:49:51;;;;;;;;;;;24.90;99.90;;;;;;5086727;28;19946;-80
2022/08/24 12:52:16;;;;;;;;;;;24.80;99.90;;;;;;5081435;28;19924;-81
2022/08/24 12:54:52;;;;;;;;;;;24.80;99.90;;;;;;5084990;28;20010;-78
2022/08/24 12:57:43;;;;;;;;;;;24.80;99.90;;;;;;5087395;28;19924;-81
2022/08/24 13:00:14;;;;;;;;;;;24.80;99.90;;;;;;5086525;28;19931;-79
2022/08/24 13:02:44;;;;;;;;;;;24.70;99.90;;;;;;5086384;28;19950;-79
2022/08/24 13:05:17;;;;;;;;;;;24.70;99.90;;;;;;5086992;28;19924;-79
2022/08/24 13:07:45;;;;;;;;;;;24.70;99.90;;;;;;5086249;28;19924;-80
2022/08/24 13:10:23;;;;;;;;;;;24.80;99.90;;;;;;5083111;28;19978;-81
2022/08/24 13:12:55;;;;;;;;;;;24.90;99.90;;;;;;5082182;28;19986;-81
2022/08/24 13:15:24;;;;;;;;;;;24.90;99.90;;;;;;5081541;28;19955;-81
2022/08/24 13:17:50;;;;;;;;;;;24.90;99.90;;;;;;5081183;28;20012;-79
2022/08/24 13:20:47;;;;;;;;;;;24.90;99.90;;;;;;5085469;28;20040;-79
2022/08/24 13:23:17;;;;;;;;;;;24.90;99.90;;;;;;5081750;28;19925;-80
2022/08/24 13:25:46;;;;;;;;;;;24.90;99.90;;;;;;5083411;28;20594;-81
2022/08/24 13:28:23;;;;;;;;;;;24.90;99.90;;;;;;5078419;28;20325;-81
2022/08/24 13:31:10;;;;;;;;;;;24.90;99.90;;;;;;5076486;28;19932;-80
2022/08/24 13:33:47;;;;;;;;;;;25.00;99.90;;;;;;5078342;28;19925;-80
2022/08/24 13:36:27;;;;;;;;;;;25.00;99.90;;;;;;5081571;28;19931;-81
2022/08/24 13:38:56;;;;;;;;;;;25.10;99.90;;;;;;5084915;28;20000;-80
2022/08/24 13:41:40;;;;;;;;;;;25.10;99.90;;;;;;5074338;28;19931;-81
2022/08/24 13:44:14;;;;;;;;;;;25.10;99.90;;;;;;5084472;28;19984;-79
2022/08/24 13:46:58;;;;;;;;;;;25.10;99.90;;;;;;5083987;28;19924;-80
2022/08/24 13:49:30;;;;;;;;;;;25.10;99.90;;;;;;5085630;28;19924;-80
2022/08/24 13:52:18;;;;;;;;;;;25.20;99.90;;;;;;5068496;28;19931;-82
2022/08/24 13:54:50;;;;;;;;;;;25.20;99.90;;;;;;5083827;28;19924;-79
2022/08/24 13:57:25;;;;;;;;;;;25.10;99.90;;;;;;5085392;28;19985;-79
2022/08/24 14:00:14;;;;;;;;;;;25.10;99.90;;;;;;5085683;28;19924;-79
2022/08/24 14:02:53;;;;;;;;;;;25.20;99.90;;;;;;5065949;28;20286;-79
2022/08/24 14:05:30;;;;;;;;;;;25.20;99.90;;;;;;5082756;28;19929;-79
2022/08/24 14:08:05;;;;;;;;;;;25.20;99.90;;;;;;5084525;28;19954;-79
2022/08/24 14:10:40;;;;;;;;;;;25.20;99.90;;;;;;5083452;28;20861;-79
2022/08/24 14:13:14;;;;;;;;;;;25.30;99.90;;;;;;5086007;28;19971;-80
2022/08/24 14:17:50;;;;;;;;;;;25.30;99.90;;;;;;5084426;28;20053;-80
2022/08/24 14:18:50;;;;;;;;;;;25.30;99.90;;;;;;5080585;28;19930;-79
2022/08/24 14:21:18;;;;;;;;;;;25.30;99.90;;;;;;5086159;28;19924;-80
2022/08/24 14:23:51;;;;;;;;;;;25.30;99.90;;;;;;5084402;28;19924;-80
2022/08/24 14:26:31;;;;;;;;;;;25.30;99.90;;;;;;5084291;28;19939;-80
2022/08/24 14:29:16;;;;;;;;;;;25.30;99.90;;;;;;5084855;28;19989;-80
2022/08/24 14:32:04;;;;;;;;;;;25.40;99.90;;;;;;5083279;28;20027;-80
2022/08/24 14:34:34;;;;;;;;;;;25.50;99.90;;;;;;5066643;28;19924;-80
2022/08/24 14:37:04;;;;;;;;;;;25.50;99.90;;;;;;5080462;28;20359;-80
2022/08/24 14:39:37;;;;;;;;;;;25.50;99.90;;;;;;5074343;28;20026;-79
2022/08/24 14:42:20;;;;;;;;;;;25.40;99.90;;;;;;5084012;28;20115;-80
2022/08/24 14:44:45;;;;;;;;;;;25.50;99.90;;;;;;5083763;28;19924;-80